createdAt,value
2023-05-22T00:01:45.298Z,8.93
2023-05-22T00:04:13.542Z,9.40
2023-05-22T00:06:42.997Z,9.00
2023-05-22T00:09:09.547Z,8.00
2023-05-22T00:11:37.069Z,10.30
2023-05-22T00:14:03.670Z,9.97
2023-05-22T00:16:30.216Z,9.27
2023-05-22T00:18:57.388Z,9.43
2023-05-22T00:21:24.716Z,9.00
2023-05-22T00:23:51.239Z,9.93
2023-05-22T00:26:17.982Z,9.00
2023-05-22T00:28:44.554Z,9.70
2023-05-22T00:31:11.294Z,8.27
2023-05-22T00:33:37.965Z,9.43
2023-05-22T00:36:05.325Z,9.70
2023-05-22T00:38:33.703Z,9.37
2023-05-22T00:41:01.322Z,9.47
2023-05-22T00:43:28.194Z,10.43
2023-05-22T00:45:54.941Z,9.90
2023-05-22T00:48:22.248Z,9.57
2023-05-22T00:50:50.093Z,9.17
2023-05-22T00:53:19.706Z,9.57
2023-05-22T00:55:46.448Z,9.67
2023-05-22T00:58:18.705Z,10.20
2023-05-22T01:00:46.725Z,9.80
2023-05-22T01:03:14.224Z,9.50
2023-05-22T01:05:41.789Z,9.57
2023-05-22T01:08:09.333Z,9.03
2023-05-22T01:10:37.373Z,9.70
2023-05-22T01:13:10.000Z,8.83
2023-05-22T01:15:46.034Z,9.60
2023-05-22T01:18:32.448Z,9.47
2023-05-22T01:21:18.560Z,9.23
2023-05-22T01:24:00.426Z,9.10
2023-05-22T01:26:44.965Z,9.67
2023-05-22T01:29:28.929Z,10.00
2023-05-22T01:31:58.497Z,10.03
2023-05-22T01:34:26.062Z,10.10
2023-05-22T01:36:53.594Z,9.70
2023-05-22T01:39:20.613Z,10.47
2023-05-22T01:41:47.476Z,9.67
2023-05-22T01:44:14.995Z,9.80
2023-05-22T01:46:41.512Z,9.00
2023-05-22T01:49:09.265Z,8.83
2023-05-22T01:51:44.109Z,9.60
2023-05-22T01:54:18.394Z,8.10
2023-05-22T01:56:48.945Z,9.53
2023-05-22T01:59:42.092Z,8.57
2023-05-22T02:02:11.049Z,9.67
2023-05-22T02:04:39.856Z,10.70
2023-05-22T02:07:07.228Z,10.40
2023-05-22T02:09:34.052Z,8.17
2023-05-22T02:12:01.124Z,9.03
2023-05-22T02:14:28.414Z,8.60
2023-05-22T02:16:55.116Z,8.83
2023-05-22T02:19:21.765Z,9.33
2023-05-22T02:21:48.572Z,10.30
2023-05-22T02:24:15.215Z,10.13
2023-05-22T02:26:42.697Z,9.67
2023-05-22T02:29:09.419Z,8.83
2023-05-22T02:31:35.977Z,9.83
2023-05-22T02:34:05.440Z,9.60
2023-05-22T02:36:33.266Z,9.17
2023-05-22T02:39:00.529Z,9.43
2023-05-22T02:41:27.456Z,9.87
2023-05-22T02:43:54.085Z,9.70
2023-05-22T02:46:20.880Z,9.50
2023-05-22T02:48:47.696Z,9.33
2023-05-22T02:51:14.509Z,10.10
2023-05-22T02:53:41.612Z,8.97
2023-05-22T02:56:09.000Z,10.33
2023-05-22T02:58:35.940Z,8.50
2023-05-22T03:01:03.813Z,9.43
2023-05-22T03:03:31.616Z,8.43
2023-05-22T03:05:58.582Z,8.90
2023-05-22T03:08:28.380Z,9.40
2023-05-22T03:10:56.747Z,8.40
2023-05-22T03:13:23.378Z,9.10
2023-05-22T03:15:49.940Z,9.97
2023-05-22T03:18:16.704Z,10.33
2023-05-22T03:20:43.593Z,9.13
2023-05-22T03:23:12.072Z,8.50
2023-05-22T03:25:38.634Z,8.80
2023-05-22T03:28:05.412Z,9.57
2023-05-22T03:30:31.996Z,8.30
2023-05-22T03:32:58.912Z,8.77
2023-05-22T03:35:25.697Z,8.20
2023-05-22T03:37:52.379Z,9.10
2023-05-22T03:40:18.959Z,8.33
2023-05-22T03:42:45.793Z,9.60
2023-05-22T03:45:12.760Z,9.63
2023-05-22T03:47:39.498Z,9.63
2023-05-22T03:50:06.393Z,9.87
2023-05-22T03:52:33.010Z,10.10
2023-05-22T03:55:00.211Z,10.23
2023-05-22T03:57:26.742Z,9.20
2023-05-22T03:59:53.438Z,9.53
2023-05-22T04:02:20.299Z,8.83
2023-05-22T04:04:47.415Z,9.17
2023-05-22T04:07:14.161Z,9.20
2023-05-22T04:09:41.538Z,9.77
2023-05-22T04:12:08.708Z,8.77
2023-05-22T04:14:35.388Z,9.97
2023-05-22T04:17:02.050Z,8.67
2023-05-22T04:19:30.147Z,9.20
2023-05-22T04:21:58.334Z,8.57
2023-05-22T04:24:25.600Z,9.47
2023-05-22T04:26:52.127Z,9.13
2023-05-22T04:29:22.303Z,9.43
2023-05-22T04:31:48.907Z,8.73
2023-05-22T04:34:16.196Z,8.97
2023-05-22T04:36:45.305Z,9.53
2023-05-22T04:39:13.998Z,9.27
2023-05-22T04:41:41.000Z,8.80
2023-05-22T04:44:07.973Z,9.50
2023-05-22T04:46:36.085Z,8.87
2023-05-22T04:49:03.322Z,8.40
2023-05-22T04:51:31.418Z,9.17
2023-05-22T04:53:58.518Z,9.00
2023-05-22T04:56:35.365Z,9.47
2023-05-22T04:59:04.901Z,9.67
2023-05-22T05:01:33.219Z,9.00
2023-05-22T05:04:00.841Z,9.30
2023-05-22T05:06:27.537Z,9.27
2023-05-22T05:08:55.085Z,8.97
2023-05-22T05:11:21.730Z,9.80
2023-05-22T05:13:48.453Z,9.83
2023-05-22T05:16:15.033Z,9.60
2023-05-22T05:18:41.833Z,9.60
2023-05-22T05:21:08.999Z,9.20
2023-05-22T05:23:36.352Z,9.63
2023-05-22T05:26:02.965Z,9.30
2023-05-22T05:28:29.506Z,9.47
2023-05-22T05:30:57.814Z,8.90
2023-05-22T05:33:24.454Z,9.00
2023-05-22T05:35:52.789Z,8.37
2023-05-22T05:38:19.506Z,9.27
2023-05-22T05:40:46.163Z,9.43
2023-05-22T05:43:15.216Z,9.10
2023-05-22T05:45:42.651Z,9.67
2023-05-22T05:48:09.441Z,8.63
2023-05-22T05:50:36.239Z,9.23
2023-05-22T05:53:02.909Z,8.60
2023-05-22T05:55:29.571Z,9.03
2023-05-22T05:57:56.304Z,9.90
2023-05-22T06:00:23.299Z,9.70
2023-05-22T06:02:50.849Z,9.47
2023-05-22T06:05:19.573Z,9.10
2023-05-22T06:07:46.429Z,8.57
2023-05-22T06:10:13.130Z,9.23
2023-05-22T06:12:39.928Z,9.67
2023-05-22T06:15:13.314Z,8.80
2023-05-22T06:17:39.983Z,8.73
2023-05-22T06:20:07.489Z,8.97
2023-05-22T06:22:34.176Z,8.97
2023-05-22T06:25:00.938Z,9.13
2023-05-22T06:27:27.805Z,9.80
2023-05-22T06:29:56.341Z,9.17
2023-05-22T06:32:23.249Z,9.00
2023-05-22T06:34:49.958Z,9.60
2023-05-22T06:37:16.968Z,8.57
2023-05-22T06:39:43.580Z,9.20
2023-05-22T06:42:10.299Z,8.93
2023-05-22T06:44:36.966Z,9.17
2023-05-22T06:47:03.662Z,8.17
2023-05-22T06:49:30.280Z,8.70
2023-05-22T06:51:57.207Z,9.17
2023-05-22T06:54:23.989Z,8.20
2023-05-22T06:56:50.605Z,8.73
2023-05-22T06:59:17.521Z,9.17
2023-05-22T07:01:44.322Z,9.73
2023-05-22T07:04:13.207Z,9.53
2023-05-22T07:06:41.856Z,8.90
2023-05-22T07:09:09.042Z,8.77
2023-05-22T07:11:38.374Z,8.53
2023-05-22T07:14:05.081Z,9.50
2023-05-22T07:16:31.872Z,8.50
2023-05-22T07:18:58.660Z,9.40
2023-05-22T07:21:25.499Z,9.10
2023-05-22T07:23:52.442Z,9.47
2023-05-22T07:26:19.392Z,9.47
2023-05-22T07:28:46.328Z,8.20
2023-05-22T07:31:12.902Z,9.30
2023-05-22T07:33:39.608Z,10.43
2023-05-22T07:36:06.578Z,8.80
2023-05-22T07:38:33.384Z,8.60
2023-05-22T07:40:59.894Z,9.00
2023-05-22T07:43:26.697Z,7.90
2023-05-22T07:45:54.348Z,8.20
2023-05-22T07:48:21.376Z,8.57
2023-05-22T07:50:48.110Z,7.63
2023-05-22T07:53:15.915Z,8.60
2023-05-22T07:55:42.564Z,8.27
2023-05-22T07:58:10.838Z,8.47
2023-05-22T08:00:37.497Z,8.70
2023-05-22T08:03:04.565Z,8.00
2023-05-22T08:05:31.290Z,8.93
2023-05-22T08:07:57.878Z,8.80
2023-05-22T08:10:24.681Z,8.30
2023-05-22T08:12:52.118Z,8.40
2023-05-22T08:15:18.717Z,7.70
2023-05-22T08:17:45.722Z,8.37
2023-05-22T08:20:13.170Z,8.17
2023-05-22T08:22:40.509Z,8.43
2023-05-22T08:25:07.360Z,8.57
2023-05-22T08:27:33.987Z,7.70
2023-05-22T08:30:01.539Z,7.97
2023-05-22T08:32:29.344Z,8.37
2023-05-22T08:34:57.972Z,8.20
2023-05-22T08:37:24.525Z,7.10
2023-05-22T08:39:51.315Z,7.90
2023-05-22T08:42:17.889Z,7.83
2023-05-22T08:44:44.616Z,8.63
2023-05-22T08:47:14.066Z,7.60
2023-05-22T08:49:41.285Z,7.27
2023-05-22T08:52:10.914Z,7.70
2023-05-22T08:54:43.668Z,7.10
2023-05-22T08:57:10.677Z,8.10
2023-05-22T08:59:38.623Z,8.23
2023-05-22T09:02:06.970Z,7.83
2023-05-22T09:04:33.866Z,7.60
2023-05-22T09:07:06.047Z,7.40
2023-05-22T09:09:36.881Z,6.70
2023-05-22T09:12:06.458Z,6.93
2023-05-22T09:14:52.236Z,7.20
2023-05-22T09:17:21.020Z,7.17
2023-05-22T09:19:48.078Z,7.70
2023-05-22T09:22:14.849Z,7.20
2023-05-22T09:24:42.501Z,6.70
2023-05-22T09:27:10.598Z,7.60
2023-05-22T09:29:55.380Z,7.20
2023-05-22T09:32:22.126Z,7.87
2023-05-22T09:34:49.406Z,6.80
2023-05-22T09:37:19.056Z,6.50
2023-05-22T09:39:46.991Z,6.20
2023-05-22T09:42:17.733Z,7.17
2023-05-22T09:44:48.976Z,6.13
2023-05-22T09:47:15.704Z,6.17
2023-05-22T09:49:43.859Z,6.40
2023-05-22T09:52:12.712Z,5.87
2023-05-22T09:54:47.561Z,6.20
2023-05-22T09:57:17.292Z,6.53
2023-05-22T09:59:44.946Z,6.23
2023-05-22T10:02:13.486Z,7.60
2023-05-22T10:04:41.195Z,6.90
2023-05-22T10:07:08.370Z,6.80
2023-05-22T10:09:35.872Z,6.53
2023-05-22T10:12:05.743Z,6.27
2023-05-22T10:14:32.672Z,6.03
2023-05-22T10:17:03.175Z,6.10
2023-05-22T10:19:32.825Z,5.83
2023-05-22T10:22:00.885Z,6.03
2023-05-22T10:24:27.579Z,6.30
2023-05-22T10:26:54.732Z,7.00
2023-05-22T10:29:25.939Z,6.17
2023-05-22T10:32:04.737Z,6.20
2023-05-22T10:35:24.207Z,6.90
2023-05-22T10:37:53.669Z,6.60
2023-05-22T10:40:33.030Z,6.10
2023-05-22T10:43:01.051Z,6.80
2023-05-22T10:45:32.023Z,5.93
2023-05-22T10:48:21.792Z,5.90
2023-05-22T10:50:53.042Z,5.87
2023-05-22T10:53:23.097Z,6.07
2023-05-22T10:55:54.753Z,6.13
2023-05-22T10:58:31.913Z,6.07
2023-05-22T11:01:17.677Z,6.10
2023-05-22T11:04:11.867Z,6.53
2023-05-22T11:06:45.943Z,6.90
2023-05-22T11:09:31.784Z,6.80
2023-05-22T11:12:24.655Z,6.13
2023-05-22T11:15:10.723Z,5.87
2023-05-22T11:17:42.722Z,6.40
2023-05-22T11:20:25.624Z,5.70
2023-05-22T11:23:01.772Z,6.23
2023-05-22T11:25:28.925Z,6.87
2023-05-22T11:27:56.173Z,5.97
2023-05-22T11:30:26.758Z,5.90
2023-05-22T11:32:53.417Z,6.10
2023-05-22T11:35:21.846Z,6.00
2023-05-22T11:37:50.852Z,5.60
2023-05-22T11:40:21.031Z,5.70
2023-05-22T11:42:48.181Z,6.27
2023-05-22T11:45:14.964Z,5.80
2023-05-22T11:47:42.111Z,5.90
2023-05-22T11:50:09.325Z,6.00
2023-05-22T11:52:37.498Z,5.70
2023-05-22T11:55:05.630Z,6.50
2023-05-22T11:57:32.512Z,6.40
2023-05-22T11:59:59.490Z,5.20
2023-05-22T12:02:26.745Z,5.70
2023-05-22T12:04:57.357Z,5.10
2023-05-22T12:07:25.374Z,7.30
2023-05-22T12:09:52.409Z,5.60
2023-05-22T12:12:22.339Z,5.60
2023-05-22T12:14:49.505Z,5.60
2023-05-22T12:17:17.471Z,5.90
2023-05-22T12:19:44.567Z,6.30
2023-05-22T12:22:11.881Z,6.37
2023-05-22T12:24:48.526Z,5.67
2023-05-22T12:27:15.630Z,5.30
2023-05-22T12:29:43.020Z,6.27
2023-05-22T12:32:11.685Z,6.00
2023-05-22T12:34:47.678Z,6.80
2023-05-22T12:37:25.980Z,6.73
2023-05-22T12:39:59.189Z,6.17
2023-05-22T12:42:26.635Z,6.57
2023-05-22T12:44:54.494Z,6.50
2023-05-22T12:47:22.295Z,5.43
2023-05-22T12:49:49.067Z,5.17
2023-05-22T12:52:15.621Z,5.83
2023-05-22T12:54:42.266Z,6.70
2023-05-22T12:57:09.422Z,5.90
2023-05-22T12:59:37.222Z,5.70
2023-05-22T13:02:06.982Z,6.10
2023-05-22T13:04:34.100Z,6.73
2023-05-22T13:07:00.747Z,6.57
2023-05-22T13:09:27.383Z,7.10
2023-05-22T13:11:54.185Z,6.90
2023-05-22T13:14:21.441Z,6.83
2023-05-22T13:16:47.960Z,6.27
2023-05-22T13:19:14.516Z,6.37
2023-05-22T13:21:41.379Z,5.93
2023-05-22T13:24:08.392Z,7.80
2023-05-22T13:26:35.139Z,7.27
2023-05-22T13:29:01.796Z,7.10
2023-05-22T13:31:28.491Z,6.80
2023-05-22T13:33:55.203Z,6.50
2023-05-22T13:36:21.928Z,7.27
2023-05-22T13:38:48.640Z,7.20
2023-05-22T13:41:15.663Z,7.37
2023-05-22T13:43:42.449Z,6.00
2023-05-22T13:46:09.080Z,6.57
2023-05-22T13:48:35.808Z,6.67
2023-05-22T13:51:02.877Z,6.40
2023-05-22T13:53:29.437Z,6.57
2023-05-22T13:55:56.024Z,6.33
2023-05-22T13:58:22.633Z,6.67
2023-05-22T14:00:49.346Z,6.70
2023-05-22T14:03:17.893Z,6.80
2023-05-22T14:05:45.139Z,7.27
2023-05-22T14:08:11.802Z,6.67
2023-05-22T14:10:38.867Z,7.40
2023-05-22T14:13:05.554Z,7.17
2023-05-22T14:15:34.229Z,6.43
2023-05-22T14:18:02.861Z,7.30
2023-05-22T14:20:29.471Z,6.97
2023-05-22T14:22:58.746Z,6.47
2023-05-22T14:25:26.368Z,6.63
2023-05-22T14:27:53.094Z,6.50
2023-05-22T14:30:19.770Z,6.67
2023-05-22T14:32:47.085Z,6.67
2023-05-22T14:35:13.887Z,6.57
2023-05-22T14:37:40.562Z,6.70
2023-05-22T14:40:07.931Z,6.90
2023-05-22T14:42:35.321Z,7.07
2023-05-22T14:45:01.846Z,7.03
2023-05-22T14:47:28.475Z,6.77
2023-05-22T14:49:57.689Z,7.43
2023-05-22T14:52:29.566Z,6.23
2023-05-22T14:54:56.295Z,6.63
2023-05-22T14:57:22.844Z,5.97
2023-05-22T14:59:49.530Z,7.23
2023-05-22T15:02:16.449Z,6.27
2023-05-22T15:04:44.916Z,6.60
2023-05-22T15:07:12.128Z,6.83
2023-05-22T15:09:38.824Z,6.90
2023-05-22T15:12:06.092Z,7.20
2023-05-22T15:14:32.657Z,6.80
2023-05-22T15:16:59.761Z,6.20
2023-05-22T15:19:26.622Z,6.40
2023-05-22T15:21:54.615Z,6.43
2023-05-22T15:24:22.215Z,7.80
2023-05-22T15:26:48.924Z,6.33
2023-05-22T15:29:16.021Z,7.20
2023-05-22T15:31:42.691Z,6.43
2023-05-22T15:34:09.523Z,6.50
2023-05-22T15:36:40.477Z,6.13
2023-05-22T15:39:07.180Z,6.40
2023-05-22T15:41:33.900Z,6.63
2023-05-22T15:44:00.430Z,6.90
2023-05-22T15:46:27.162Z,7.00
2023-05-22T15:48:54.470Z,8.57
2023-05-22T15:51:21.231Z,7.73
2023-05-22T15:53:47.881Z,6.80
2023-05-22T15:56:14.581Z,7.10
2023-05-22T15:58:41.109Z,7.03
2023-05-22T16:01:08.374Z,7.23
2023-05-22T16:03:35.012Z,6.67
2023-05-22T16:06:01.686Z,6.60
2023-05-22T16:08:28.847Z,6.17
2023-05-22T16:10:59.016Z,6.87
2023-05-22T16:13:25.716Z,6.67
2023-05-22T16:15:52.429Z,6.50
2023-05-22T16:18:21.614Z,7.17
2023-05-22T16:20:48.220Z,6.80
2023-05-22T16:23:14.783Z,5.63
2023-05-22T16:25:41.558Z,6.87
2023-05-22T16:28:08.440Z,6.90
2023-05-22T16:30:35.387Z,7.17
2023-05-22T16:33:01.976Z,6.63
2023-05-22T16:35:29.606Z,6.20
2023-05-22T16:37:56.171Z,7.60
2023-05-22T16:40:22.917Z,7.13
2023-05-22T16:42:50.756Z,6.97
2023-05-22T16:45:18.386Z,6.80
2023-05-22T16:47:44.923Z,7.00
2023-05-22T16:50:11.815Z,6.30
2023-05-22T16:52:38.456Z,6.20
2023-05-22T16:55:05.513Z,6.80
2023-05-22T16:57:32.217Z,7.13
2023-05-22T16:59:59.108Z,7.37
2023-05-22T17:02:26.236Z,7.03
2023-05-22T17:04:53.353Z,7.13
2023-05-22T17:07:19.993Z,6.40
2023-05-22T17:09:46.741Z,6.87
2023-05-22T17:12:13.266Z,7.03
2023-05-22T17:14:39.890Z,6.87
2023-05-22T17:17:07.073Z,7.40
2023-05-22T17:19:34.014Z,6.27
2023-05-22T17:22:00.776Z,7.40
2023-05-22T17:24:27.999Z,6.77
2023-05-22T17:26:54.693Z,6.10
2023-05-22T17:29:21.628Z,7.10
2023-05-22T17:31:48.574Z,7.00
2023-05-22T17:34:15.187Z,6.30
2023-05-22T17:36:44.595Z,7.03
2023-05-22T17:39:11.485Z,7.23
2023-05-22T17:41:38.494Z,8.27
2023-05-22T17:44:05.168Z,7.50
2023-05-22T17:46:32.294Z,6.77
2023-05-22T17:48:59.008Z,7.33
2023-05-22T17:51:25.830Z,7.60
2023-05-22T17:53:56.076Z,7.57
2023-05-22T17:56:23.787Z,7.40
2023-05-22T17:58:50.883Z,6.90
2023-05-22T18:01:18.301Z,7.20
2023-05-22T18:03:46.076Z,7.07
2023-05-22T18:06:13.473Z,7.37
2023-05-22T18:08:40.138Z,7.13
2023-05-22T18:11:06.715Z,7.37
2023-05-22T18:13:33.391Z,7.60
2023-05-22T18:16:03.747Z,7.90
2023-05-22T18:18:30.573Z,7.60
2023-05-22T18:21:04.507Z,8.20
2023-05-22T18:23:31.085Z,8.80
2023-05-22T18:25:57.638Z,7.00
2023-05-22T18:28:26.714Z,8.70
2023-05-22T18:30:56.420Z,7.70
2023-05-22T18:33:24.850Z,7.10
2023-05-22T18:35:51.499Z,8.10
2023-05-22T18:38:18.230Z,10.80
2023-05-22T18:40:44.855Z,16.73
2023-05-22T18:43:11.871Z,17.07
2023-05-22T18:45:38.438Z,8.97
2023-05-22T18:48:05.101Z,7.80
2023-05-22T18:50:32.064Z,8.33
2023-05-22T18:52:58.721Z,7.50
2023-05-22T18:55:25.350Z,8.67
2023-05-22T18:57:51.994Z,8.03
2023-05-22T19:00:18.592Z,8.43
2023-05-22T19:02:45.308Z,8.83
2023-05-22T19:05:11.995Z,10.70
2023-05-22T19:07:38.767Z,10.50
2023-05-22T19:10:08.072Z,11.27
2023-05-22T19:12:34.964Z,12.10
2023-05-22T19:15:01.804Z,10.30
2023-05-22T19:17:28.494Z,10.20
2023-05-22T19:19:55.951Z,10.03
2023-05-22T19:22:24.523Z,12.10
2023-05-22T19:24:51.245Z,12.27
2023-05-22T19:27:17.987Z,12.83
2023-05-22T19:29:44.637Z,13.73
2023-05-22T19:32:11.302Z,11.43
2023-05-22T19:34:38.729Z,11.60
2023-05-22T19:37:05.653Z,10.50
2023-05-22T19:39:32.575Z,9.80
2023-05-22T19:41:59.173Z,10.30
2023-05-22T19:44:26.097Z,9.57
2023-05-22T19:46:52.811Z,11.13
2023-05-22T19:49:19.502Z,10.63
2023-05-22T19:51:46.161Z,11.20
2023-05-22T19:54:13.297Z,11.70
2023-05-22T19:56:39.912Z,9.90
2023-05-22T19:59:06.594Z,9.50
2023-05-22T20:01:33.473Z,10.00
2023-05-22T20:04:01.030Z,9.23
2023-05-22T20:06:31.516Z,8.80
2023-05-22T20:08:58.340Z,8.80
2023-05-22T20:11:24.984Z,11.87
2023-05-22T20:13:54.538Z,12.97
2023-05-22T20:16:21.262Z,12.57
2023-05-22T20:18:48.837Z,12.80
2023-05-22T20:21:15.552Z,11.90
2023-05-22T20:23:42.895Z,11.80
2023-05-22T20:26:09.608Z,10.60
2023-05-22T20:28:36.137Z,10.67
2023-05-22T20:31:02.689Z,10.23
2023-05-22T20:33:29.277Z,9.00
2023-05-22T20:35:55.950Z,9.27
2023-05-22T20:38:22.928Z,9.40
2023-05-22T20:40:49.710Z,9.20
2023-05-22T20:43:18.650Z,9.63
2023-05-22T20:45:46.000Z,10.17
2023-05-22T20:48:13.854Z,11.53
2023-05-22T20:50:41.079Z,12.30
2023-05-22T20:53:08.468Z,12.30
2023-05-22T20:55:35.206Z,12.30
2023-05-22T20:58:01.887Z,11.40
2023-05-22T21:00:28.776Z,12.37
2023-05-22T21:02:58.130Z,12.33
2023-05-22T21:05:26.258Z,11.13
2023-05-22T21:07:54.138Z,11.50
2023-05-22T21:10:20.820Z,12.40
2023-05-22T21:12:47.376Z,10.70
2023-05-22T21:15:14.093Z,10.97
2023-05-22T21:17:40.668Z,10.10
2023-05-22T21:20:08.206Z,9.80
2023-05-22T21:22:34.768Z,11.23
2023-05-22T21:25:01.408Z,10.80
2023-05-22T21:27:28.135Z,10.50
2023-05-22T21:29:55.125Z,11.57
2023-05-22T21:32:21.680Z,11.70
2023-05-22T21:34:48.325Z,11.87
2023-05-22T21:37:14.979Z,11.10
2023-05-22T21:39:41.823Z,10.97
2023-05-22T21:42:08.925Z,11.37
2023-05-22T21:44:35.951Z,11.97
2023-05-22T21:47:02.728Z,11.00
2023-05-22T21:49:29.571Z,10.33
2023-05-22T21:51:56.122Z,11.33
2023-05-22T21:54:22.985Z,12.40
2023-05-22T21:56:49.526Z,9.80
2023-05-22T21:59:16.393Z,11.60
2023-05-22T22:01:43.143Z,12.30
2023-05-22T22:04:09.855Z,11.30
2023-05-22T22:06:37.135Z,9.90
2023-05-22T22:09:03.952Z,9.53
2023-05-22T22:11:30.710Z,9.80
2023-05-22T22:13:57.392Z,9.43
2023-05-22T22:16:24.571Z,10.40
2023-05-22T22:19:00.529Z,11.13
2023-05-22T22:21:28.161Z,9.80
2023-05-22T22:23:54.854Z,9.60
2023-05-22T22:26:21.449Z,11.40
2023-05-22T22:28:48.259Z,11.37
2023-05-22T22:31:15.069Z,11.80
2023-05-22T22:33:41.674Z,10.37
2023-05-22T22:36:09.033Z,10.80
2023-05-22T22:38:35.701Z,9.53
2023-05-22T22:41:04.808Z,9.50
2023-05-22T22:43:31.732Z,10.67
2023-05-22T22:45:58.388Z,9.80
2023-05-22T22:48:25.092Z,9.60
2023-05-22T22:50:52.653Z,9.90
2023-05-22T22:53:19.679Z,8.40
2023-05-22T22:55:48.014Z,9.57
2023-05-22T22:58:14.674Z,9.27
2023-05-22T23:00:41.601Z,11.53
2023-05-22T23:03:08.197Z,11.43
2023-05-22T23:05:34.977Z,11.97
2023-05-22T23:08:02.232Z,11.80
2023-05-22T23:10:29.102Z,9.93
2023-05-22T23:12:56.155Z,9.80
2023-05-22T23:15:23.288Z,9.60
2023-05-22T23:17:51.917Z,12.20
2023-05-22T23:20:18.793Z,11.20
2023-05-22T23:22:45.382Z,9.37
2023-05-22T23:25:11.888Z,10.20
2023-05-22T23:27:39.389Z,10.43
2023-05-22T23:30:08.036Z,11.77
2023-05-22T23:32:34.659Z,11.63
2023-05-22T23:35:01.525Z,12.70
2023-05-22T23:37:28.337Z,9.80
2023-05-22T23:39:55.036Z,9.70
2023-05-22T23:42:21.708Z,10.70
2023-05-22T23:44:48.530Z,9.13
2023-05-22T23:47:16.810Z,12.00
2023-05-22T23:49:43.659Z,9.83
2023-05-22T23:52:12.135Z,10.07
2023-05-22T23:54:38.827Z,10.83
2023-05-22T23:57:05.453Z,10.60
2023-05-22T23:59:32.318Z,11.13
